• Join FlightAware (Why Join?)
  • Login
  • US Flag 
Rudolph Flight #1: Arrived! 
04:26AM EST


 

Airport Tracker/Info


-or-


 

Live Flight TrackerFlight Track Log ✈ AMF1026 ✈ 25-Jun-2013 ✈ KALB - KCVG

Flight Track Log - Related Links

Times and Time Zones

All times are in EDT time to prevent confusion due to time zone crossing. See the AMF1026 flight status page for this flight to view local times or setup timezone preferences in your user account.

Time Position Orientation Groundspeed Altitude Reporting Facility
EDT Latitude Longitude Course Direction KTS MPH feet Rate Location/Type
09:05PM 42.7256 -73.8053 184° South 144 166 1,000  Level Boston Center
09:05PM 42.7006 -73.8075 184° South 175 201 1,500 1,200 Climbing Boston Center
09:06PM 42.7042 -73.8669 275° West 172 198 3,000 1,440 Climbing Boston Center
09:07PM 42.7239 -73.9381 291° West 178 205 4,800 1,440 Climbing Boston Center
09:08PM 42.7317 -73.9975 280° West 179 206 6,100 1,260 Climbing Boston Center
09:09PM 42.7100 -74.0564 243° Southwest 162 186 7,400 1,200 Climbing Boston Center
09:10PM 42.6967 -74.1097 251° West 167 192 8,600 1,140 Climbing Boston Center
09:11PM 42.6850 -74.1828 258° West 172 198 9,700 1,020 Climbing Boston Center
09:12PM 42.6717 -74.2444 254° West 188 216 10,700 1,020 Climbing Boston Center
09:13PM 42.6600 -74.3206 258° West 188 216 11,800 960 Climbing Boston Center
09:14PM 42.6464 -74.3792 252° West 188 216 12,700 960 Climbing Boston Center
09:15PM 42.6306 -74.4550 254° West 188 216 13,800 1,020 Climbing Boston Center
09:16PM 42.6169 -74.5167 253° West 183 211 14,800 840 Climbing Boston Center
09:17PM 42.6031 -74.5894 255° West 183 211 15,500 600 Climbing Boston Center
09:18PM 42.5914 -74.6511 256° West 183 211 16,000 300 Climbing Boston Center
09:19PM 42.5711 -74.7322 251° West 204 235 16,100  Climbing Boston Center
09:20PM 42.5572 -74.8050 255° West 221 254 16,000 -60 Descending Boston Center
09:21PM 42.5408 -74.8861 255° West 226 260 16,000  Level Boston Center
09:22PM 42.5203 -74.9642 250° West 226 260 16,000  Level Boston Center
09:23PM 42.5039 -75.0453 255° West 226 260 16,000  Level Boston Center
09:24PM 42.4875 -75.1289 255° West 226 260 16,000  Level Boston Center
09:25PM 42.4686 -75.2097 252° West 226 260 16,000  Level Boston Center
09:26PM 42.4500 -75.2878 252° West 226 260 16,000  Level Boston Center
09:27PM 42.4233 -75.3625 244° Southwest 226 260 16,000  Level Boston Center
09:28PM 42.3981 -75.4428 247° West 226 260 16,000  Level Boston Center
09:30PM 42.3444 -75.5767 242° Southwest 230 265 16,100  Climbing New York Center
09:31PM 42.3183 -75.6558 246° West 235 270 16,100  Level New York Center
09:32PM 42.2944 -75.7328 247° West 235 270 16,100  Level New York Center
09:33PM 42.2722 -75.8094 249° West 230 265 16,100  Level New York Center
09:34PM 42.2503 -75.8889 250° West 230 265 16,100  Level New York Center
09:35PM 42.2281 -75.9656 249° West 230 265 16,100  Level New York Center
09:36PM 42.1981 -76.0361 240° Southwest 230 265 16,100  Level New York Center
09:37PM 42.1697 -76.1122 243° Southwest 235 270 16,100  Level New York Center
09:38PM 42.1392 -76.1881 242° Southwest 235 270 16,100  Level New York Center
09:39PM 42.1108 -76.2639 243° Southwest 235 270 16,100  Level New York Center
09:40PM 42.0800 -76.3425 242° Southwest 235 270 16,100 -60 Level New York Center
09:41PM 42.0494 -76.4153 241° Southwest 235 270 16,000 -60 Descending New York Center
09:42PM 42.0228 -76.4939 245° Southwest 235 270 16,000  Level New York Center
09:43PM 41.9942 -76.5722 244° Southwest 235 270 16,000  Level New York Center
09:44PM 41.9633 -76.6478 241° Southwest 235 270 16,000  Level New York Center
09:45PM 41.9344 -76.7261 244° Southwest 240 276 16,000  Level New York Center
09:46PM 41.9056 -76.8014 243° Southwest 235 270 16,000  Level New York Center
09:47PM 41.8786 -76.8825 246° West 235 270 16,000  Level New York Center
09:48PM 41.8497 -76.9581 243° Southwest 235 270 16,000  Level New York Center
09:49PM 41.8267 -77.0394 249° West 235 270 16,000  Level New York Center
09:50PM 41.8033 -77.1261 250° West 235 270 16,000 -60 Level New York Center
09:53PM 41.7533 -77.3236 251° West 233 268 15,900 -60 Descending Cleveland Center
09:54PM 41.7325 -77.4053 251° West 233 268 15,900  Level Cleveland Center
09:55PM 41.7097 -77.4844 249° West 233 268 15,900  Level Cleveland Center
09:56PM 41.6764 -77.5639 241° Southwest 233 268 16,000  Climbing Cleveland Center
09:57PM 41.6469 -77.6292 239° Southwest 233 268 16,000  Level Cleveland Center
09:58PM 41.6153 -77.7000 239° Southwest 233 268 16,000  Level Cleveland Center
09:59PM 41.5858 -77.7708 241° Southwest 233 268 16,000  Level Cleveland Center
10:00PM 41.5606 -77.8469 246° West 233 268 16,000  Level Cleveland Center
10:01PM 41.5353 -77.9228 246° West 228 262 16,000  Level Cleveland Center
10:02PM 41.5100 -78.0014 247° West 223 257 16,000  Level Cleveland Center
10:03PM 41.4864 -78.0744 247° West 223 257 16,000 -60 Level Cleveland Center
10:04PM 41.4650 -78.1475 249° West 217 250 15,900  Descending Cleveland Center
10:05PM 41.4436 -78.2203 249° West 217 250 16,000  Climbing Cleveland Center
10:06PM 41.4222 -78.2931 249° West 217 250 16,000  Level Cleveland Center
10:07PM 41.4028 -78.3683 251° West 212 244 16,000  Level Cleveland Center
10:08PM 41.3814 -78.4411 249° West 212 244 16,000  Level Cleveland Center
10:09PM 41.3494 -78.5225 242° Southwest 217 250 16,000  Level Cleveland Center
10:10PM 41.3047 -78.5819 225° Southwest 222 255 16,000  Level Cleveland Center
10:11PM 41.2597 -78.6414 225° Southwest 222 255 16,000 -60 Level Cleveland Center
10:12PM 41.2108 -78.6981 221° Southwest 232 267 15,900  Descending Cleveland Center
10:13PM 41.1617 -78.7544 221° Southwest 237 273 16,000  Climbing Cleveland Center
10:14PM 41.1103 -78.8111 220° Southwest 237 273 16,000  Level Cleveland Center
10:15PM 41.0611 -78.8703 222° Southwest 242 278 16,000  Level Cleveland Center
10:16PM 41.0119 -78.9267 221° Southwest 242 278 16,000  Level Cleveland Center
10:17PM 40.9628 -78.9883 223° Southwest 242 278 16,000  Level Cleveland Center
10:18PM 40.9158 -79.0444 222° Southwest 242 278 16,000  Level Cleveland Center
10:19PM 40.8514 -79.0625 192° South 221 254 16,000  Level Cleveland Center
10:20PM 40.7803 -79.0558 176° South 233 268 16,000  Level Cleveland Center
10:21PM 40.7114 -79.0519 178° South 246 283 16,000  Level Cleveland Center
10:22PM 40.6531 -79.0450 175° South 254 292 16,000  Level Cleveland Center
10:23PM 40.5758 -79.0386 176° South 254 292 16,100  Climbing Cleveland Center
10:24PM 40.5089 -79.0292 174° South 259 298 16,100  Level Cleveland Center
10:25PM 40.4400 -79.0228 176° South 254 292 16,100 -60 Level Cleveland Center
10:26PM 40.3669 -79.0136 175° South 254 292 16,000  Descending Cleveland Center
10:27PM 40.3156 -79.0556 212° Southwest 226 260 16,100  Climbing Cleveland Center
10:28PM 40.3103 -79.1372 265° West 185 213 16,000 -60 Descending Cleveland Center
10:29PM 40.3008 -79.2219 262° West 213 245 16,000  Level Cleveland Center
10:30PM 40.2936 -79.3036 263° West 227 261 16,100 -60 Climbing Cleveland Center
10:31PM 40.2881 -79.3883 265° West 238 274 15,900 -120 Descending Cleveland Center
10:32PM 40.2806 -79.4700 263° West 238 274 15,900  Level Cleveland Center
10:33PM 40.2731 -79.5544 263° West 238 274 15,900  Level Cleveland Center
10:34PM 40.2656 -79.6389 263° West 238 274 15,900  Level Cleveland Center
10:35PM 40.2558 -79.7261 262° West 238 274 16,000  Climbing Cleveland Center
10:36PM 40.2458 -79.8133 261° West 238 274 16,000 -60 Level Cleveland Center
10:37PM 40.2339 -79.8950 259° West 238 274 15,900  Descending Cleveland Center
10:38PM 40.2239 -79.9794 261° West 238 274 16,000  Climbing Cleveland Center
10:39PM 40.2097 -80.0719 259° West 238 274 16,000 -60 Level Cleveland Center
10:40PM 40.1997 -80.1536 261° West 238 274 15,900 -60 Descending Cleveland Center
10:41PM 40.1856 -80.2381 258° West 238 274 15,900  Level Cleveland Center
10:42PM 40.1753 -80.3194 261° West 238 274 15,900  Level Cleveland Center
10:43PM 40.1650 -80.3956 260° West 238 274 15,900  Level Cleveland Center
10:44PM 40.1547 -80.4772 261° West 238 274 15,900  Level Cleveland Center
10:45PM 40.1422 -80.5586 259° West 238 274 15,900  Level Cleveland Center
10:46PM 40.1297 -80.6428 259° West 238 274 15,900  Level Cleveland Center
10:47PM 40.1192 -80.7297 261° West 238 274 15,900  Level Cleveland Center
10:48PM 40.1086 -80.8111 260° West 238 274 15,900  Level Cleveland Center
10:49PM 40.1000 -80.8953 262° West 238 274 15,900  Level Cleveland Center
10:50PM 40.0956 -80.9739 266° West 238 274 15,900  Level Cleveland Center
10:51PM 40.0869 -81.0553 262° West 238 274 15,900  Level Cleveland Center
10:52PM 40.0803 -81.1339 264° West 238 274 15,900  Level Cleveland Center
10:53PM 40.0597 -81.2478 257° West 217 250 15,900  Level Indianapolis Center
10:54PM 40.0450 -81.3236 256° West 214 246 15,900  Level Indianapolis Center
10:55PM 40.0308 -81.4003 256° West 216 249 15,900  Level Indianapolis Center
10:56PM 40.0136 -81.4889 256° West 215 247 16,000  Climbing Indianapolis Center
10:57PM 39.9997 -81.5631 256° West 211 243 16,000  Level Indianapolis Center
10:58PM 39.9853 -81.6389 256° West 212 244 16,000  Level Indianapolis Center
10:59PM 39.9700 -81.7136 255° West 213 245 16,000  Level Indianapolis Center
11:00PM 39.9556 -81.7894 256° West 216 249 16,000  Level Indianapolis Center
11:01PM 39.9408 -81.8664 256° West 217 250 16,000  Level Indianapolis Center
11:02PM 39.9306 -81.9475 261° West 227 261 16,000  Level Indianapolis Center
11:03PM 39.9103 -82.0253 251° West 226 260 16,000  Level Indianapolis Center
11:04PM 39.8903 -82.1031 251° West 226 260 16,000  Level Indianapolis Center
11:05PM 39.8681 -82.1817 250° West 229 264 16,000  Level Indianapolis Center
11:06PM 39.8467 -82.2608 251° West 230 265 16,000  Level Indianapolis Center
11:07PM 39.8261 -82.3425 252° West 235 270 16,000  Level Indianapolis Center
11:08PM 39.8056 -82.4214 251° West 231 266 16,000  Level Indianapolis Center
11:09PM 39.7822 -82.5158 252° West 234 269 16,000  Level Indianapolis Center
11:11PM 39.7614 -82.5978 252° West 235 270 16,000  Level Indianapolis Center
11:12PM 39.7417 -82.6786 252° West 234 269 16,000  Level Indianapolis Center
11:13PM 39.7192 -82.7575 250° West 233 268 16,000  Level Indianapolis Center
11:14PM 39.6964 -82.8372 250° West 233 268 16,000  Level Indianapolis Center
11:15PM 39.6742 -82.9186 250° West 237 273 16,000  Level Indianapolis Center
11:16PM 39.6519 -82.9983 250° West 234 269 16,000  Level Indianapolis Center
11:17PM 39.6281 -83.0761 248° West 231 266 16,000 -540 Level Indianapolis Center
11:18PM 39.6017 -83.1606 248° West 246 283 15,000 -960 Descending Indianapolis Center
11:19PM 39.5736 -83.2486 248° West 260 299 14,100 -900 Descending Indianapolis Center
11:20PM 39.5503 -83.3403 252° West 264 304 13,200 -960 Descending Indianapolis Center
11:21PM 39.5286 -83.4314 253° West 262 302 12,200 -1,020 Descending Indianapolis Center
11:22PM 39.5083 -83.5214 254° West 258 297 11,200 -600 Descending Indianapolis Center
11:23PM 39.4894 -83.6075 254° West 248 285 11,000 -120 Descending Indianapolis Center
11:24PM 39.4703 -83.6914 254° West 241 277 11,000  Level Indianapolis Center
11:25PM 39.4506 -83.7739 253° West 238 274 11,000  Level Indianapolis Center
11:26PM 39.4311 -83.8558 253° West 236 272 11,000  Level Indianapolis Center
11:27PM 39.3936 -83.9261 235° Southwest 238 274 11,000  Level Indianapolis Center
11:28PM 39.3450 -83.9825 222° Southwest 235 270 11,000  Level Indianapolis Center
11:29PM 39.2944 -84.0392 221° Southwest 238 274 11,000 -300 Level Indianapolis Center
11:30PM 39.2461 -84.0983 223° Southwest 236 272 10,400 -960 Descending Indianapolis Center
11:31PM 39.1953 -84.1506 219° Southwest 234 269 9,100 -1,440 Descending Indianapolis Center
11:32PM 39.1372 -84.2111 219° Southwest 234 269 7,500 -1,380 Descending Indianapolis Center
11:33PM 39.0692 -84.1986 172° South 245 282 6,300 -1,260 Descending Indianapolis Center
11:34PM 39.0036 -84.1897 174° South 239 275 5,000 -660 Descending Indianapolis Center
11:35PM 39.0103 -84.2614 277° West 212 244 5,000 -480 Level Indianapolis Center
11:36PM 39.0367 -84.3278 297° West 209 241 4,100 -720 Descending Indianapolis Center
11:37PM 39.0486 -84.4081 281° West 214 246 3,600 -540 Descending Indianapolis Center
11:39PM 39.0500 -84.5500 271° West 150 173 2,500 -600 Descending Cincinnati TRACON
11:40PM 39.0500 -84.6000 270° West 94 108 1,700 -720 Descending Cincinnati TRACON
11:41PM 39.0500 -84.6333 270° West 106 122 1,100 -600 Descending Cincinnati TRACON
11:43PM 39.0333 -84.6667 247° West  Level FlightAware Approximate
11:50PM 39.0488 -84.6678 247° West  Level Estimated